sensor_id;sensor_type;location;lat;lon;timestamp;P1;P2;P0
67376;PMS7003;54261;46.086;6.588;2023-03-30T00:02:16;4.00;4.00;3.00
67376;PMS7003;54261;46.086;6.588;2023-03-30T00:07:19;6.67;4.00;2.00
67376;PMS7003;54261;46.086;6.588;2023-03-30T00:12:21;8.33;5.00;2.00
67376;PMS7003;54261;46.086;6.588;2023-03-30T00:17:22;9.33;5.00;3.00
67376;PMS7003;54261;46.086;6.588;2023-03-30T00:22:25;8.67;4.33;2.00
67376;PMS7003;54261;46.086;6.588;2023-03-30T00:27:27;5.67;5.00;2.67
67376;PMS7003;54261;46.086;6.588;2023-03-30T00:32:29;4.00;3.00;1.67
67376;PMS7003;54261;46.086;6.588;2023-03-30T00:37:31;4.33;4.00;3.00
67376;PMS7003;54261;46.086;6.588;2023-03-30T00:42:34;4.00;3.00;1.33
67376;PMS7003;54261;46.086;6.588;2023-03-30T00:47:37;5.67;4.67;1.67
67376;PMS7003;54261;46.086;6.588;2023-03-30T00:52:43;4.00;4.00;2.00
67376;PMS7003;54261;46.086;6.588;2023-03-30T00:57:46;3.00;3.00;2.00
67376;PMS7003;54261;46.086;6.588;2023-03-30T01:02:58;5.00;3.00;1.00
67376;PMS7003;54261;46.086;6.588;2023-03-30T01:08:04;5.67;4.00;3.00
67376;PMS7003;54261;46.086;6.588;2023-03-30T01:13:10;9.00;4.00;2.00
67376;PMS7003;54261;46.086;6.588;2023-03-30T01:18:20;7.00;4.67;2.00
67376;PMS7003;54261;46.086;6.588;2023-03-30T01:34:27;9.00;4.00;2.00
67376;PMS7003;54261;46.086;6.588;2023-03-30T01:50:59;7.67;4.33;2.33
67376;PMS7003;54261;46.086;6.588;2023-03-30T01:56:18;4.00;4.00;2.00
67376;PMS7003;54261;46.086;6.588;2023-03-30T02:01:27;4.33;3.00;2.00
67376;PMS7003;54261;46.086;6.588;2023-03-30T02:06:37;5.33;3.00;2.00
67376;PMS7003;54261;46.086;6.588;2023-03-30T02:11:47;4.00;2.67;2.33
67376;PMS7003;54261;46.086;6.588;2023-03-30T02:16:59;8.33;5.67;3.33
67376;PMS7003;54261;46.086;6.588;2023-03-30T02:22:06;3.00;3.00;2.00
67376;PMS7003;54261;46.086;6.588;2023-03-30T02:27:09;7.00;3.67;3.00
67376;PMS7003;54261;46.086;6.588;2023-03-30T02:32:18;5.00;3.67;3.00
67376;PMS7003;54261;46.086;6.588;2023-03-30T02:48:30;6.00;6.00;2.67
67376;PMS7003;54261;46.086;6.588;2023-03-30T02:53:42;3.33;3.00;2.00
67376;PMS7003;54261;46.086;6.588;2023-03-30T03:04:17;4.33;3.67;1.33
67376;PMS7003;54261;46.086;6.588;2023-03-30T03:09:46;4.67;2.67;1.67
67376;PMS7003;54261;46.086;6.588;2023-03-30T03:14:49;6.67;5.00;2.00
67376;PMS7003;54261;46.086;6.588;2023-03-30T03:19:51;3.33;3.33;2.33
67376;PMS7003;54261;46.086;6.588;2023-03-30T03:24:54;7.00;5.00;2.00
67376;PMS7003;54261;46.086;6.588;2023-03-30T03:30:05;10.67;5.33;2.67
67376;PMS7003;54261;46.086;6.588;2023-03-30T03:35:15;6.33;4.00;2.67
67376;PMS7003;54261;46.086;6.588;2023-03-30T03:40:18;6.00;4.00;2.00
67376;PMS7003;54261;46.086;6.588;2023-03-30T03:45:20;6.33;4.00;2.00
67376;PMS7003;54261;46.086;6.588;2023-03-30T03:50:26;5.00;4.00;3.00
67376;PMS7003;54261;46.086;6.588;2023-03-30T03:55:28;7.33;4.67;3.00
67376;PMS7003;54261;46.086;6.588;2023-03-30T04:00:31;9.33;5.00;2.00
67376;PMS7003;54261;46.086;6.588;2023-03-30T04:05:34;8.67;3.00;1.00
67376;PMS7003;54261;46.086;6.588;2023-03-30T04:10:38;5.00;4.00;2.00
67376;PMS7003;54261;46.086;6.588;2023-03-30T04:15:59;8.33;6.00;3.00
67376;PMS7003;54261;46.086;6.588;2023-03-30T04:21:31;10.33;7.00;3.67
67376;PMS7003;54261;46.086;6.588;2023-03-30T04:26:58;4.67;4.33;3.00
67376;PMS7003;54261;46.086;6.588;2023-03-30T04:32:29;5.00;4.00;1.67
67376;PMS7003;54261;46.086;6.588;2023-03-30T04:37:58;5.00;4.00;2.00
67376;PMS7003;54261;46.086;6.588;2023-03-30T04:43:28;6.00;3.67;2.00
67376;PMS7003;54261;46.086;6.588;2023-03-30T04:48:56;8.00;4.00;2.00
67376;PMS7003;54261;46.086;6.588;2023-03-30T04:54:18;1.67;1.67;1.00
67376;PMS7003;54261;46.086;6.588;2023-03-30T04:59:40;5.67;5.00;2.00
67376;PMS7003;54261;46.086;6.588;2023-03-30T05:04:42;4.00;3.33;2.00
67376;PMS7003;54261;46.086;6.588;2023-03-30T05:10:07;5.67;3.33;1.67
67376;PMS7003;54261;46.086;6.588;2023-03-30T05:15:35;3.33;3.33;2.67
67376;PMS7003;54261;46.086;6.588;2023-03-30T05:20:58;6.00;4.00;2.00
67376;PMS7003;54261;46.086;6.588;2023-03-30T05:26:29;6.67;4.67;2.00
67376;PMS7003;54261;46.086;6.588;2023-03-30T05:31:58;5.00;4.00;3.00
67376;PMS7003;54261;46.086;6.588;2023-03-30T05:37:29;6.00;4.67;2.00
67376;PMS7003;54261;46.086;6.588;2023-03-30T05:42:50;6.67;6.00;4.00
67376;PMS7003;54261;46.086;6.588;2023-03-30T05:48:06;6.67;5.00;3.00
67376;PMS7003;54261;46.086;6.588;2023-03-30T05:53:37;8.67;6.00;4.00
67376;PMS7003;54261;46.086;6.588;2023-03-30T05:58:57;5.33;4.33;2.67
67376;PMS7003;54261;46.086;6.588;2023-03-30T06:04:21;3.67;3.33;1.00
67376;PMS7003;54261;46.086;6.588;2023-03-30T06:09:23;10.00;3.00;2.00
67376;PMS7003;54261;46.086;6.588;2023-03-30T06:14:27;2.67;2.33;2.00
67376;PMS7003;54261;46.086;6.588;2023-03-30T06:19:49;8.00;5.33;5.00
67376;PMS7003;54261;46.086;6.588;2023-03-30T06:24:51;7.33;4.00;2.67
67376;PMS7003;54261;46.086;6.588;2023-03-30T06:29:54;9.00;6.67;4.00
67376;PMS7003;54261;46.086;6.588;2023-03-30T06:34:56;5.67;4.67;3.00
67376;PMS7003;54261;46.086;6.588;2023-03-30T06:40:00;5.67;5.00;3.33
67376;PMS7003;54261;46.086;6.588;2023-03-30T06:45:02;8.00;6.00;4.00
67376;PMS7003;54261;46.086;6.588;2023-03-30T06:50:06;7.50;6.25;4.75
67376;PMS7003;54261;46.086;6.588;2023-03-30T06:55:26;4.00;4.00;3.00
67376;PMS7003;54261;46.086;6.588;2023-03-30T07:00:28;9.00;6.00;4.00
67376;PMS7003;54261;46.086;6.588;2023-03-30T07:06:05;7.00;7.00;4.67
67376;PMS7003;54261;46.086;6.588;2023-03-30T07:11:10;6.00;6.00;4.00
67376;PMS7003;54261;46.086;6.588;2023-03-30T07:16:13;5.67;5.67;4.00
67376;PMS7003;54261;46.086;6.588;2023-03-30T07:21:15;8.00;5.67;5.00
67376;PMS7003;54261;46.086;6.588;2023-03-30T07:26:17;7.00;5.00;3.67
67376;PMS7003;54261;46.086;6.588;2023-03-30T07:31:27;8.33;6.33;4.67
67376;PMS7003;54261;46.086;6.588;2023-03-30T07:36:30;6.67;5.67;4.00
67376;PMS7003;54261;46.086;6.588;2023-03-30T07:41:32;7.33;6.67;5.00
67376;PMS7003;54261;46.086;6.588;2023-03-30T07:46:34;7.00;6.00;4.67
67376;PMS7003;54261;46.086;6.588;2023-03-30T07:51:36;4.00;3.00;3.00
67376;PMS7003;54261;46.086;6.588;2023-03-30T07:57:00;10.33;9.33;7.00
67376;PMS7003;54261;46.086;6.588;2023-03-30T08:02:03;14.33;13.33;11.67
67376;PMS7003;54261;46.086;6.588;2023-03-30T08:07:20;7.00;6.00;5.00
67376;PMS7003;54261;46.086;6.588;2023-03-30T08:12:27;24.25;20.25;17.50
67376;PMS7003;54261;46.086;6.588;2023-03-30T08:17:29;10.00;8.67;7.33
67376;PMS7003;54261;46.086;6.588;2023-03-30T08:22:31;10.33;7.33;5.00
67376;PMS7003;54261;46.086;6.588;2023-03-30T08:27:33;5.00;5.00;4.00
67376;PMS7003;54261;46.086;6.588;2023-03-30T08:32:34;16.50;16.00;14.00
67376;PMS7003;54261;46.086;6.588;2023-03-30T08:37:36;29.75;27.25;22.00
67376;PMS7003;54261;46.086;6.588;2023-03-30T08:42:42;18.00;17.00;14.00
67376;PMS7003;54261;46.086;6.588;2023-03-30T08:48:06;7.67;7.00;4.00
67376;PMS7003;54261;46.086;6.588;2023-03-30T08:53:16;5.00;5.00;4.00
67376;PMS7003;54261;46.086;6.588;2023-03-30T08:58:33;8.00;7.50;4.75
67376;PMS7003;54261;46.086;6.588;2023-03-30T09:08:51;9.33;7.33;5.00
67376;PMS7003;54261;46.086;6.588;2023-03-30T09:13:53;4.00;4.00;4.00
67376;PMS7003;54261;46.086;6.588;2023-03-30T09:18:57;3.00;3.00;2.00
67376;PMS7003;54261;46.086;6.588;2023-03-30T09:24:05;3.67;2.67;2.00
67376;PMS7003;54261;46.086;6.588;2023-03-30T09:29:18;6.00;5.00;2.67
67376;PMS7003;54261;46.086;6.588;2023-03-30T09:34:25;3.00;3.00;3.00
67376;PMS7003;54261;46.086;6.588;2023-03-30T09:39:34;5.00;5.00;3.00
67376;PMS7003;54261;46.086;6.588;2023-03-30T09:49:57;4.00;4.00;3.00
67376;PMS7003;54261;46.086;6.588;2023-03-30T10:00:29;6.00;5.00;4.00
67376;PMS7003;54261;46.086;6.588;2023-03-30T10:05:33;7.00;5.67;4.00
67376;PMS7003;54261;46.086;6.588;2023-03-30T10:10:36;7.67;6.00;5.00
67376;PMS7003;54261;46.086;6.588;2023-03-30T10:15:42;5.67;4.33;4.00
67376;PMS7003;54261;46.086;6.588;2023-03-30T10:20:50;8.00;7.67;6.00
67376;PMS7003;54261;46.086;6.588;2023-03-30T10:25:55;4.33;4.00;3.67
67376;PMS7003;54261;46.086;6.588;2023-03-30T10:31:04;8.00;7.00;5.67
67376;PMS7003;54261;46.086;6.588;2023-03-30T10:36:17;10.00;6.67;4.33
67376;PMS7003;54261;46.086;6.588;2023-03-30T10:41:20;8.67;8.67;6.00
67376;PMS7003;54261;46.086;6.588;2023-03-30T10:46:24;6.33;5.33;4.33
67376;PMS7003;54261;46.086;6.588;2023-03-30T10:51:34;8.00;8.00;6.00
67376;PMS7003;54261;46.086;6.588;2023-03-30T10:57:08;6.33;6.00;4.67
67376;PMS7003;54261;46.086;6.588;2023-03-30T11:07:34;5.67;5.67;3.33
67376;PMS7003;54261;46.086;6.588;2023-03-30T11:12:40;12.00;12.00;10.00
67376;PMS7003;54261;46.086;6.588;2023-03-30T11:17:54;9.33;7.00;5.00
67376;PMS7003;54261;46.086;6.588;2023-03-30T11:23:16;8.00;7.67;6.33
67376;PMS7003;54261;46.086;6.588;2023-03-30T11:33:57;8.00;8.00;6.00
67376;PMS7003;54261;46.086;6.588;2023-03-30T11:39:15;12.00;12.00;8.67
67376;PMS7003;54261;46.086;6.588;2023-03-30T11:44:33;6.00;5.00;4.00
67376;PMS7003;54261;46.086;6.588;2023-03-30T11:49:37;6.00;6.00;4.67
67376;PMS7003;54261;46.086;6.588;2023-03-30T11:54:59;5.67;4.00;3.33
67376;PMS7003;54261;46.086;6.588;2023-03-30T12:05:47;3.67;3.00;2.00
67376;PMS7003;54261;46.086;6.588;2023-03-30T12:10:59;5.33;5.00;4.00
67376;PMS7003;54261;46.086;6.588;2023-03-30T12:16:14;5.67;4.00;3.00
67376;PMS7003;54261;46.086;6.588;2023-03-30T12:21:50;7.00;6.00;4.67
67376;PMS7003;54261;46.086;6.588;2023-03-30T12:26:57;5.00;4.33;3.00
67376;PMS7003;54261;46.086;6.588;2023-03-30T12:32:17;8.00;7.00;6.00
67376;PMS7003;54261;46.086;6.588;2023-03-30T12:37:33;7.00;6.00;4.33
67376;PMS7003;54261;46.086;6.588;2023-03-30T12:42:38;5.00;4.00;2.67
67376;PMS7003;54261;46.086;6.588;2023-03-30T12:48:55;3.00;3.00;3.00
67376;PMS7003;54261;46.086;6.588;2023-03-30T13:04:20;6.00;5.00;3.33
67376;PMS7003;54261;46.086;6.588;2023-03-30T13:29:54;11.67;8.00;6.00
67376;PMS7003;54261;46.086;6.588;2023-03-30T13:51:18;5.00;5.00;5.00
67376;PMS7003;54261;46.086;6.588;2023-03-30T13:56:24;4.67;4.67;3.67
67376;PMS7003;54261;46.086;6.588;2023-03-30T14:01:27;8.33;6.33;5.00
67376;PMS7003;54261;46.086;6.588;2023-03-30T14:06:31;3.00;3.00;2.00
67376;PMS7003;54261;46.086;6.588;2023-03-30T14:11:55;5.00;5.00;4.00
67376;PMS7003;54261;46.086;6.588;2023-03-30T14:17:00;4.67;3.33;3.00
67376;PMS7003;54261;46.086;6.588;2023-03-30T14:22:16;5.67;5.67;4.00
67376;PMS7003;54261;46.086;6.588;2023-03-30T14:27:22;4.00;4.00;3.00
67376;PMS7003;54261;46.086;6.588;2023-03-30T14:32:24;4.00;4.00;3.00
67376;PMS7003;54261;46.086;6.588;2023-03-30T14:37:27;7.67;5.33;3.67
67376;PMS7003;54261;46.086;6.588;2023-03-30T14:42:31;4.00;4.00;3.00
67376;PMS7003;54261;46.086;6.588;2023-03-30T14:47:38;5.33;5.00;3.33
67376;PMS7003;54261;46.086;6.588;2023-03-30T14:52:41;4.00;4.00;3.33
67376;PMS7003;54261;46.086;6.588;2023-03-30T14:57:44;5.00;5.00;4.00
67376;PMS7003;54261;46.086;6.588;2023-03-30T15:02:48;6.00;4.00;3.00
67376;PMS7003;54261;46.086;6.588;2023-03-30T15:07:56;8.33;4.33;2.33
67376;PMS7003;54261;46.086;6.588;2023-03-30T15:12:57;5.67;5.00;5.00
67376;PMS7003;54261;46.086;6.588;2023-03-30T15:18:01;6.67;6.33;4.33
67376;PMS7003;54261;46.086;6.588;2023-03-30T15:23:04;7.67;6.33;5.33
67376;PMS7003;54261;46.086;6.588;2023-03-30T15:28:07;10.67;9.00;4.33
67376;PMS7003;54261;46.086;6.588;2023-03-30T15:38:50;6.00;5.33;4.67
67376;PMS7003;54261;46.086;6.588;2023-03-30T15:43:57;8.67;8.00;5.67
67376;PMS7003;54261;46.086;6.588;2023-03-30T15:49:11;6.00;6.00;5.33
67376;PMS7003;54261;46.086;6.588;2023-03-30T15:59:18;7.33;7.33;5.00
67376;PMS7003;54261;46.086;6.588;2023-03-30T16:04:22;6.67;6.67;5.67
67376;PMS7003;54261;46.086;6.588;2023-03-30T16:09:26;9.00;8.00;6.00
67376;PMS7003;54261;46.086;6.588;2023-03-30T16:14:28;8.33;8.00;6.00
67376;PMS7003;54261;46.086;6.588;2023-03-30T16:19:31;9.00;8.00;7.00
67376;PMS7003;54261;46.086;6.588;2023-03-30T16:24:33;8.00;8.00;6.00
67376;PMS7003;54261;46.086;6.588;2023-03-30T16:29:35;14.67;10.33;7.67
67376;PMS7003;54261;46.086;6.588;2023-03-30T16:34:36;9.00;9.00;7.67
67376;PMS7003;54261;46.086;6.588;2023-03-30T16:39:39;9.00;8.00;5.67
67376;PMS7003;54261;46.086;6.588;2023-03-30T16:44:41;8.00;7.33;5.00
67376;PMS7003;54261;46.086;6.588;2023-03-30T16:49:43;10.00;8.33;7.00
67376;PMS7003;54261;46.086;6.588;2023-03-30T16:54:44;12.00;11.00;7.00
67376;PMS7003;54261;46.086;6.588;2023-03-30T16:59:46;11.67;11.67;9.00
67376;PMS7003;54261;46.086;6.588;2023-03-30T17:04:48;10.67;10.67;7.33
67376;PMS7003;54261;46.086;6.588;2023-03-30T17:09:50;11.00;10.00;8.00
67376;PMS7003;54261;46.086;6.588;2023-03-30T17:14:51;9.33;9.33;9.00
67376;PMS7003;54261;46.086;6.588;2023-03-30T17:19:53;7.33;7.00;6.00
67376;PMS7003;54261;46.086;6.588;2023-03-30T17:24:56;13.33;9.67;7.67
67376;PMS7003;54261;46.086;6.588;2023-03-30T17:29:58;8.67;8.67;8.00
67376;PMS7003;54261;46.086;6.588;2023-03-30T17:35:00;9.33;9.33;7.67
67376;PMS7003;54261;46.086;6.588;2023-03-30T17:40:07;11.67;8.33;6.00
67376;PMS7003;54261;46.086;6.588;2023-03-30T17:45:16;8.00;7.33;6.00
67376;PMS7003;54261;46.086;6.588;2023-03-30T17:50:32;8.67;8.67;7.00
67376;PMS7003;54261;46.086;6.588;2023-03-30T17:55:36;8.00;7.00;5.00
67376;PMS7003;54261;46.086;6.588;2023-03-30T18:00:38;10.00;8.33;6.33
67376;PMS7003;54261;46.086;6.588;2023-03-30T18:05:40;15.67;11.67;8.00
67376;PMS7003;54261;46.086;6.588;2023-03-30T18:10:44;11.33;10.67;8.67
67376;PMS7003;54261;46.086;6.588;2023-03-30T18:15:50;10.33;9.33;7.67
67376;PMS7003;54261;46.086;6.588;2023-03-30T18:20:56;15.67;15.00;9.00
67376;PMS7003;54261;46.086;6.588;2023-03-30T18:26:05;13.00;13.00;10.00
67376;PMS7003;54261;46.086;6.588;2023-03-30T18:31:12;9.67;8.00;6.67
67376;PMS7003;54261;46.086;6.588;2023-03-30T18:36:14;12.00;11.67;9.00
67376;PMS7003;54261;46.086;6.588;2023-03-30T18:41:16;9.33;9.00;6.00
67376;PMS7003;54261;46.086;6.588;2023-03-30T18:46:18;13.00;11.00;9.33
67376;PMS7003;54261;46.086;6.588;2023-03-30T18:51:19;14.67;13.00;9.00
67376;PMS7003;54261;46.086;6.588;2023-03-30T18:56:22;12.00;12.00;9.00
67376;PMS7003;54261;46.086;6.588;2023-03-30T19:01:23;7.00;7.00;6.00
67376;PMS7003;54261;46.086;6.588;2023-03-30T19:06:25;8.33;8.33;6.67
67376;PMS7003;54261;46.086;6.588;2023-03-30T19:11:27;8.33;8.00;6.00
67376;PMS7003;54261;46.086;6.588;2023-03-30T19:16:29;10.00;10.00;8.00
67376;PMS7003;54261;46.086;6.588;2023-03-30T19:21:31;10.00;10.00;7.33
67376;PMS7003;54261;46.086;6.588;2023-03-30T19:26:32;14.00;13.33;10.33
67376;PMS7003;54261;46.086;6.588;2023-03-30T19:31:35;10.33;9.67;8.00
67376;PMS7003;54261;46.086;6.588;2023-03-30T19:36:37;12.33;10.00;8.00
67376;PMS7003;54261;46.086;6.588;2023-03-30T19:41:38;9.00;9.00;7.67
67376;PMS7003;54261;46.086;6.588;2023-03-30T19:46:40;11.00;11.00;7.33
67376;PMS7003;54261;46.086;6.588;2023-03-30T19:51:42;13.00;11.33;9.00
67376;PMS7003;54261;46.086;6.588;2023-03-30T19:56:44;12.00;12.00;9.67
67376;PMS7003;54261;46.086;6.588;2023-03-30T20:01:46;14.67;12.00;8.67
67376;PMS7003;54261;46.086;6.588;2023-03-30T20:06:48;17.67;14.67;12.00
67376;PMS7003;54261;46.086;6.588;2023-03-30T20:11:50;12.00;12.00;8.00
67376;PMS7003;54261;46.086;6.588;2023-03-30T20:16:51;11.67;10.33;7.67
67376;PMS7003;54261;46.086;6.588;2023-03-30T20:21:54;10.00;10.00;7.00
67376;PMS7003;54261;46.086;6.588;2023-03-30T20:26:57;12.00;12.00;9.33
67376;PMS7003;54261;46.086;6.588;2023-03-30T20:31:58;13.00;10.67;8.00
67376;PMS7003;54261;46.086;6.588;2023-03-30T20:37:00;11.00;9.67;7.00
67376;PMS7003;54261;46.086;6.588;2023-03-30T20:42:02;10.33;10.33;8.33
67376;PMS7003;54261;46.086;6.588;2023-03-30T20:47:08;8.25;7.25;6.00
67376;PMS7003;54261;46.086;6.588;2023-03-30T20:52:11;9.25;8.25;6.50
67376;PMS7003;54261;46.086;6.588;2023-03-30T20:57:13;9.00;9.00;6.00
67376;PMS7003;54261;46.086;6.588;2023-03-30T21:02:15;8.33;6.00;5.00
67376;PMS7003;54261;46.086;6.588;2023-03-30T21:07:17;10.75;10.75;8.25
67376;PMS7003;54261;46.086;6.588;2023-03-30T21:12:19;12.00;11.25;8.00
67376;PMS7003;54261;46.086;6.588;2023-03-30T21:17:21;9.67;9.67;7.00
67376;PMS7003;54261;46.086;6.588;2023-03-30T21:22:23;9.67;8.33;6.00
67376;PMS7003;54261;46.086;6.588;2023-03-30T21:27:25;8.67;7.33;5.00
67376;PMS7003;54261;46.086;6.588;2023-03-30T21:32:28;8.33;8.33;6.33
67376;PMS7003;54261;46.086;6.588;2023-03-30T21:37:32;11.67;10.33;7.33
67376;PMS7003;54261;46.086;6.588;2023-03-30T21:42:33;11.50;10.50;7.25
67376;PMS7003;54261;46.086;6.588;2023-03-30T21:47:35;10.75;7.50;6.00
67376;PMS7003;54261;46.086;6.588;2023-03-30T21:52:38;8.00;8.00;6.00
67376;PMS7003;54261;46.086;6.588;2023-03-30T21:57:40;9.00;8.33;7.00
67376;PMS7003;54261;46.086;6.588;2023-03-30T22:02:42;10.00;8.33;5.33
67376;PMS7003;54261;46.086;6.588;2023-03-30T22:07:44;12.00;10.00;7.00
67376;PMS7003;54261;46.086;6.588;2023-03-30T22:12:46;12.75;11.00;7.50
67376;PMS7003;54261;46.086;6.588;2023-03-30T22:17:47;7.00;7.00;5.67
67376;PMS7003;54261;46.086;6.588;2023-03-30T22:22:49;12.00;8.67;6.33
67376;PMS7003;54261;46.086;6.588;2023-03-30T22:27:51;12.00;12.00;8.75
67376;PMS7003;54261;46.086;6.588;2023-03-30T22:32:54;8.00;7.00;5.67
67376;PMS7003;54261;46.086;6.588;2023-03-30T22:37:57;10.00;10.00;6.00
67376;PMS7003;54261;46.086;6.588;2023-03-30T22:42:58;8.67;7.67;6.00
67376;PMS7003;54261;46.086;6.588;2023-03-30T22:48:00;10.33;10.00;7.00
67376;PMS7003;54261;46.086;6.588;2023-03-30T22:53:02;6.00;6.00;4.67
67376;PMS7003;54261;46.086;6.588;2023-03-30T22:58:04;9.67;9.67;7.33
67376;PMS7003;54261;46.086;6.588;2023-03-30T23:03:06;8.67;7.00;5.67
67376;PMS7003;54261;46.086;6.588;2023-03-30T23:08:08;7.00;7.00;5.67
67376;PMS7003;54261;46.086;6.588;2023-03-30T23:13:11;7.00;5.33;4.67
67376;PMS7003;54261;46.086;6.588;2023-03-30T23:18:14;10.33;9.33;5.33
67376;PMS7003;54261;46.086;6.588;2023-03-30T23:23:17;6.00;6.00;4.00
67376;PMS7003;54261;46.086;6.588;2023-03-30T23:28:18;10.50;9.00;6.25
67376;PMS7003;54261;46.086;6.588;2023-03-30T23:33:20;6.75;6.75;5.75
67376;PMS7003;54261;46.086;6.588;2023-03-30T23:38:22;8.67;7.00;6.00
67376;PMS7003;54261;46.086;6.588;2023-03-30T23:43:24;11.33;9.33;5.33
67376;PMS7003;54261;46.086;6.588;2023-03-30T23:48:26;9.00;9.00;6.33
67376;PMS7003;54261;46.086;6.588;2023-03-30T23:53:28;7.00;7.00;5.00
67376;PMS7003;54261;46.086;6.588;2023-03-30T23:58:30;6.25;5.50;3.25
